createdAt,value
2018-12-05T00:01:06.619Z,8.18
2018-12-05T00:03:37.306Z,8.18
2018-12-05T00:06:08.026Z,8.13
2018-12-05T00:08:39.904Z,8.07
2018-12-05T00:11:10.541Z,8.09
2018-12-05T00:13:43.061Z,8.07
2018-12-05T00:16:13.962Z,8.12
2018-12-05T00:18:44.601Z,8.04
2018-12-05T00:21:16.690Z,8.05
2018-12-05T00:23:47.472Z,8.08
2018-12-05T00:26:18.310Z,8.16
2018-12-05T00:28:49.002Z,8.25
2018-12-05T00:31:19.647Z,8.28
2018-12-05T00:33:50.298Z,8.31
2018-12-05T00:36:22.261Z,8.37
2018-12-05T00:38:54.339Z,8.23
2018-12-05T00:41:24.967Z,8.03
2018-12-05T00:43:56.246Z,7.97
2018-12-05T00:46:26.965Z,7.95
2018-12-05T00:48:57.558Z,7.91
2018-12-05T00:51:28.370Z,7.87
2018-12-05T00:53:58.986Z,7.77
2018-12-05T00:56:29.761Z,7.66
2018-12-05T00:59:00.417Z,7.60
2018-12-05T01:01:33.319Z,7.62
2018-12-05T01:04:08.354Z,7.55
2018-12-05T01:06:40.130Z,7.50
2018-12-05T01:09:13.251Z,7.51
2018-12-05T01:11:43.923Z,7.47
2018-12-05T01:14:14.625Z,7.49
2018-12-05T01:16:45.329Z,7.51
2018-12-05T01:19:15.962Z,7.58
2018-12-05T01:21:46.673Z,7.48
2018-12-05T01:24:17.251Z,7.55
2018-12-05T01:26:47.935Z,7.64
2018-12-05T01:29:32.924Z,7.63
2018-12-05T01:32:11.490Z,7.62
2018-12-05T01:34:43.298Z,7.45
2018-12-05T01:37:14.001Z,7.35
2018-12-05T01:39:44.693Z,7.29
2018-12-05T01:42:15.341Z,7.25
2018-12-05T01:44:46.646Z,7.17
2018-12-05T01:47:17.290Z,7.22
2018-12-05T01:49:47.950Z,7.25
2018-12-05T01:52:18.741Z,7.29
2018-12-05T01:54:49.577Z,7.34
2018-12-05T01:57:20.266Z,7.33
2018-12-05T01:59:53.955Z,7.29
2018-12-05T02:02:24.756Z,7.36
2018-12-05T02:04:55.398Z,7.32
2018-12-05T02:07:26.909Z,7.34
2018-12-05T02:09:57.510Z,7.31
2018-12-05T02:12:28.438Z,7.31
2018-12-05T02:14:59.102Z,7.24
2018-12-05T02:17:29.760Z,7.27
2018-12-05T02:20:00.359Z,7.17
2018-12-05T02:22:35.670Z,7.15
2018-12-05T02:25:06.775Z,7.15
2018-12-05T02:27:37.684Z,7.15
2018-12-05T02:30:08.642Z,7.18
2018-12-05T02:32:39.660Z,7.09
2018-12-05T02:35:10.397Z,7.02
2018-12-05T02:37:41.112Z,7.08
2018-12-05T02:40:19.518Z,7.03
2018-12-05T02:42:50.219Z,7.05
2018-12-05T02:45:20.850Z,6.95
2018-12-05T02:47:52.341Z,7.02
2018-12-05T02:50:22.977Z,7.00
2018-12-05T02:52:53.705Z,7.00
2018-12-05T02:55:24.427Z,7.00
2018-12-05T02:57:55.087Z,7.06
2018-12-05T03:00:26.519Z,6.94
2018-12-05T03:02:57.192Z,6.88
2018-12-05T03:05:28.035Z,6.74
2018-12-05T03:07:58.790Z,6.67
2018-12-05T03:10:29.534Z,6.73
2018-12-05T03:13:04.288Z,6.66
2018-12-05T03:15:35.352Z,6.58
2018-12-05T03:18:06.138Z,6.55
2018-12-05T03:20:36.883Z,6.59
2018-12-05T03:23:07.768Z,6.49
2018-12-05T03:25:39.539Z,6.45
2018-12-05T03:28:10.702Z,6.40
2018-12-05T03:30:41.368Z,6.41
2018-12-05T03:33:12.045Z,6.44
2018-12-05T03:35:42.706Z,6.49
2018-12-05T03:38:14.458Z,6.58
2018-12-05T03:40:45.167Z,6.60
2018-12-05T03:43:15.791Z,6.70
2018-12-05T03:45:47.854Z,6.66
2018-12-05T03:48:18.526Z,6.58
2018-12-05T03:50:49.679Z,6.61
2018-12-05T03:53:20.655Z,6.58
2018-12-05T03:55:51.795Z,6.59
2018-12-05T03:58:22.599Z,6.70
2018-12-05T04:00:53.283Z,6.72
2018-12-05T04:03:24.127Z,6.67
2018-12-05T04:05:54.848Z,6.71
2018-12-05T04:08:25.573Z,6.54
2018-12-05T04:10:56.641Z,6.41
2018-12-05T04:13:28.024Z,6.25
2018-12-05T04:15:58.638Z,6.18
2018-12-05T04:18:29.518Z,6.07
2018-12-05T04:21:00.170Z,6.04
2018-12-05T04:23:35.785Z,6.06
2018-12-05T04:26:06.840Z,6.08
2018-12-05T04:28:39.430Z,6.22
2018-12-05T04:31:10.020Z,6.18
2018-12-05T04:33:42.756Z,6.23
2018-12-05T04:36:13.377Z,6.20
2018-12-05T04:38:44.060Z,6.15
2018-12-05T04:41:14.664Z,6.16
2018-12-05T04:43:45.739Z,6.05
2018-12-05T04:46:16.345Z,5.96
2018-12-05T04:48:46.991Z,5.93
2018-12-05T04:51:17.913Z,5.91
2018-12-05T04:53:48.582Z,5.92
2018-12-05T04:56:19.210Z,5.98
2018-12-05T04:58:49.988Z,5.95
2018-12-05T05:01:21.159Z,5.96
2018-12-05T05:03:52.065Z,6.02
2018-12-05T05:06:23.107Z,6.05
2018-12-05T05:08:53.992Z,5.94
2018-12-05T05:11:24.600Z,5.87
2018-12-05T05:13:55.249Z,5.95
2018-12-05T05:16:25.909Z,5.90
2018-12-05T05:18:56.611Z,5.99
2018-12-05T05:21:29.318Z,5.90
2018-12-05T05:23:59.903Z,6.02
2018-12-05T05:26:30.998Z,5.92
2018-12-05T05:29:05.395Z,5.91
2018-12-05T05:31:36.043Z,5.82
2018-12-05T05:34:08.998Z,5.71
2018-12-05T05:36:39.685Z,5.66
2018-12-05T05:39:10.322Z,5.68
2018-12-05T05:41:41.043Z,5.71
2018-12-05T05:44:11.647Z,5.80
2018-12-05T05:46:43.318Z,6.00
2018-12-05T05:49:14.232Z,5.96
2018-12-05T05:51:44.875Z,5.82
2018-12-05T05:54:15.909Z,5.80
2018-12-05T05:56:47.095Z,5.78
2018-12-05T05:59:17.798Z,5.70
2018-12-05T06:01:48.436Z,5.74
2018-12-05T06:04:20.118Z,5.86
2018-12-05T06:06:52.014Z,6.00
2018-12-05T06:09:23.839Z,6.02
2018-12-05T06:11:54.514Z,6.04
2018-12-05T06:14:25.571Z,6.19
2018-12-05T06:16:56.235Z,6.17
2018-12-05T06:19:26.876Z,6.08
2018-12-05T06:21:57.534Z,6.09
2018-12-05T06:24:28.182Z,5.99
2018-12-05T06:26:58.894Z,6.07
2018-12-05T06:29:29.883Z,6.15
2018-12-05T06:32:00.581Z,6.23
2018-12-05T06:34:35.523Z,6.24
2018-12-05T06:37:06.180Z,6.27
2018-12-05T06:39:36.843Z,6.30
2018-12-05T06:42:08.620Z,6.30
2018-12-05T06:44:39.494Z,6.26
2018-12-05T06:47:10.173Z,6.28
2018-12-05T06:49:40.783Z,6.19
2018-12-05T06:52:11.528Z,6.26
2018-12-05T06:54:42.241Z,6.29
2018-12-05T06:57:14.080Z,6.23
2018-12-05T06:59:44.974Z,6.37
2018-12-05T07:02:15.713Z,6.38
2018-12-05T07:04:46.841Z,6.40
2018-12-05T07:07:17.736Z,6.44
2018-12-05T07:09:48.757Z,6.44
2018-12-05T07:12:20.197Z,6.56
2018-12-05T07:14:50.807Z,6.57
2018-12-05T07:17:21.415Z,6.60
2018-12-05T07:19:52.027Z,6.69
2018-12-05T07:22:22.664Z,6.77
2018-12-05T07:24:53.291Z,6.73
2018-12-05T07:27:24.027Z,6.69
2018-12-05T07:29:54.637Z,6.72
2018-12-05T07:32:25.344Z,6.76
2018-12-05T07:34:56.647Z,6.84
2018-12-05T07:37:27.398Z,6.80
2018-12-05T07:39:58.952Z,6.81
2018-12-05T07:42:29.809Z,6.91
2018-12-05T07:45:00.674Z,7.00
2018-12-05T07:47:34.872Z,6.93
2018-12-05T07:50:06.257Z,6.92
2018-12-05T07:52:36.956Z,6.99
2018-12-05T07:55:08.464Z,7.10
2018-12-05T07:57:39.250Z,7.15
2018-12-05T08:00:09.952Z,7.06
2018-12-05T08:02:40.661Z,7.04
2018-12-05T08:05:14.233Z,6.93
2018-12-05T08:07:45.158Z,6.96
2018-12-05T08:10:17.372Z,7.05
2018-12-05T08:12:47.986Z,7.09
2018-12-05T08:15:18.688Z,7.19
2018-12-05T08:17:49.322Z,7.40
2018-12-05T08:20:19.992Z,7.50
2018-12-05T08:22:50.638Z,7.61
2018-12-05T08:25:22.145Z,7.72
2018-12-05T08:27:55.352Z,7.73
2018-12-05T08:30:25.999Z,7.69
2018-12-05T08:32:58.086Z,7.70
2018-12-05T08:35:28.782Z,7.74
2018-12-05T08:38:00.500Z,7.87
2018-12-05T08:40:33.689Z,7.85
2018-12-05T08:43:08.451Z,7.81
2018-12-05T08:45:39.154Z,7.70
2018-12-05T08:48:09.799Z,7.59
2018-12-05T08:50:40.446Z,7.61
2018-12-05T08:53:11.074Z,7.68
2018-12-05T08:55:41.800Z,7.72
2018-12-05T08:58:12.445Z,7.78
2018-12-05T09:00:43.114Z,7.89
2018-12-05T09:03:14.909Z,8.05
2018-12-05T09:05:45.870Z,8.18
2018-12-05T09:08:16.862Z,8.32
2018-12-05T09:10:47.478Z,8.41
2018-12-05T09:13:18.162Z,8.66
2018-12-05T09:15:49.035Z,8.74
2018-12-05T09:18:19.896Z,8.62
2018-12-05T09:20:50.904Z,8.46
2018-12-05T09:23:21.813Z,8.28
2018-12-05T09:25:52.684Z,8.36
2018-12-05T09:28:23.404Z,8.50
2018-12-05T09:30:54.021Z,8.48
2018-12-05T09:33:24.654Z,8.75
2018-12-05T09:35:55.387Z,8.85
2018-12-05T09:38:26.103Z,8.83
2018-12-05T09:40:57.702Z,8.83
2018-12-05T09:43:28.331Z,9.04
2018-12-05T09:45:59.022Z,9.20
2018-12-05T09:48:30.978Z,9.42
2018-12-05T09:51:07.270Z,9.40
2018-12-05T09:53:38.639Z,9.52
2018-12-05T09:56:09.331Z,9.69
2018-12-05T09:58:40.088Z,10.01
2018-12-05T10:01:10.766Z,10.29
2018-12-05T10:03:42.077Z,10.38
2018-12-05T10:06:12.839Z,10.35
2018-12-05T10:08:43.514Z,10.75
2018-12-05T10:11:14.182Z,10.68
2018-12-05T10:13:44.849Z,11.19
2018-12-05T10:16:15.646Z,11.27
2018-12-05T10:18:46.297Z,11.01
2018-12-05T10:21:16.994Z,11.19
2018-12-05T10:23:47.950Z,11.39
2018-12-05T10:26:18.627Z,11.08
2018-12-05T10:28:49.338Z,11.14
2018-12-05T10:31:20.564Z,11.36
2018-12-05T10:33:51.155Z,11.55
2018-12-05T10:36:21.920Z,11.95
2018-12-05T10:38:53.596Z,11.63
2018-12-05T10:41:25.201Z,11.68
2018-12-05T10:43:55.910Z,11.15
2018-12-05T10:46:26.681Z,10.83
2018-12-05T10:48:57.357Z,10.61
2018-12-05T10:51:27.998Z,10.45
2018-12-05T10:53:58.664Z,10.17
2018-12-05T10:56:29.330Z,10.10
2018-12-05T10:59:05.466Z,10.18
2018-12-05T11:01:42.163Z,10.35
2018-12-05T11:04:17.996Z,10.36
2018-12-05T11:06:53.863Z,10.60
2018-12-05T11:09:29.425Z,10.90
2018-12-05T11:14:06.973Z,10.59
2018-12-05T11:16:41.789Z,10.55
2018-12-05T11:19:17.551Z,10.68
2018-12-05T11:21:55.298Z,10.79
2018-12-05T11:24:30.927Z,10.95
2018-12-05T11:27:03.251Z,11.08
2018-12-05T11:29:34.180Z,11.14
2018-12-05T11:32:11.015Z,11.34
2018-12-05T11:34:41.711Z,11.91
2018-12-05T11:37:12.439Z,12.57
2018-12-05T11:39:43.278Z,13.34
2018-12-05T11:42:13.917Z,13.49
2018-12-05T11:44:44.543Z,13.61
2018-12-05T11:47:15.254Z,13.98
2018-12-05T11:49:46.201Z,13.90
2018-12-05T11:52:16.890Z,14.03
2018-12-05T11:54:47.746Z,14.52
2018-12-05T11:57:18.659Z,15.63
2018-12-05T11:59:49.305Z,17.02
2018-12-05T12:02:22.461Z,18.78
2018-12-05T12:04:52.714Z,20.92
2018-12-05T12:07:23.439Z,22.20
2018-12-05T12:09:54.453Z,23.17
2018-12-05T12:12:30.172Z,23.34
2018-12-05T12:15:00.780Z,22.04
2018-12-05T12:17:34.773Z,23.17
2018-12-05T12:20:17.633Z,24.66
2018-12-05T12:22:48.252Z,24.34
2018-12-05T12:25:19.094Z,24.50
2018-12-05T12:27:49.850Z,23.33
2018-12-05T12:30:20.510Z,23.21
2018-12-05T12:32:51.182Z,23.50
2018-12-05T12:35:21.838Z,22.66
2018-12-05T12:37:52.486Z,24.28
2018-12-05T12:40:23.111Z,24.49
2018-12-05T12:42:55.330Z,24.89
2018-12-05T12:45:26.067Z,23.68
2018-12-05T12:47:56.717Z,23.53
2018-12-05T12:50:27.938Z,22.70
2018-12-05T12:53:00.450Z,24.47
2018-12-05T12:55:33.087Z,23.69
2018-12-05T12:58:06.069Z,24.87
2018-12-05T13:00:36.823Z,23.86
2018-12-05T13:03:08.494Z,24.50
2018-12-05T13:05:39.204Z,23.50
2018-12-05T13:08:09.854Z,22.65
2018-12-05T13:10:40.568Z,22.11
2018-12-05T13:13:11.270Z,20.31
2018-12-05T13:15:41.974Z,18.87
2018-12-05T13:18:12.677Z,18.27
2018-12-05T13:20:45.930Z,17.78
2018-12-05T13:23:16.687Z,17.43
2018-12-05T13:25:47.546Z,16.89
2018-12-05T13:28:18.165Z,16.76
2018-12-05T13:30:48.834Z,16.71
2018-12-05T13:33:21.453Z,16.83
2018-12-05T13:35:52.793Z,16.70
2018-12-05T13:38:23.420Z,16.75
2018-12-05T13:40:54.230Z,16.70
2018-12-05T13:43:24.926Z,16.71
2018-12-05T13:45:56.631Z,16.78
2018-12-05T13:48:27.234Z,17.00
2018-12-05T13:50:57.962Z,16.87
2018-12-05T13:53:28.753Z,16.70
2018-12-05T13:55:59.394Z,16.61
2018-12-05T13:58:30.336Z,16.74
2018-12-05T14:01:06.262Z,16.71
2018-12-05T14:03:37.499Z,16.76
2018-12-05T14:06:07.763Z,16.71
2018-12-05T14:08:38.896Z,16.75
2018-12-05T14:11:09.570Z,16.70
2018-12-05T14:13:40.225Z,16.64
2018-12-05T14:16:11.075Z,16.60
2018-12-05T14:18:41.737Z,16.63
2018-12-05T14:21:12.431Z,16.62
2018-12-05T14:23:43.064Z,16.57
2018-12-05T14:26:13.807Z,16.51
2018-12-05T14:28:46.546Z,16.51
2018-12-05T14:31:17.190Z,16.51
2018-12-05T14:33:48.846Z,16.59
2018-12-05T14:36:19.527Z,16.63
2018-12-05T14:38:50.182Z,16.70
2018-12-05T14:41:20.907Z,16.83
2018-12-05T14:43:51.523Z,16.90
2018-12-05T14:46:22.309Z,16.96
2018-12-05T14:48:52.956Z,17.25
2018-12-05T14:51:23.593Z,17.59
2018-12-05T14:53:54.226Z,17.77
2018-12-05T14:56:25.405Z,17.93
2018-12-05T14:58:56.063Z,17.96
2018-12-05T15:01:26.670Z,18.14
2018-12-05T15:03:57.322Z,18.46
2018-12-05T15:06:28.022Z,18.14
2018-12-05T15:08:58.711Z,18.04
2018-12-05T15:11:29.396Z,18.27
2018-12-05T15:14:00.229Z,18.31
2018-12-05T15:16:35.235Z,18.29
2018-12-05T15:19:06.885Z,18.16
2018-12-05T15:21:38.165Z,18.10
2018-12-05T15:24:09.213Z,17.84
2018-12-05T15:26:41.044Z,17.81
2018-12-05T15:29:11.736Z,17.70
2018-12-05T15:31:42.432Z,17.54
2018-12-05T15:34:13.161Z,17.32
2018-12-05T15:36:43.879Z,17.20
2018-12-05T15:39:16.423Z,17.09
2018-12-05T15:41:47.106Z,16.87
2018-12-05T15:44:17.785Z,16.78
2018-12-05T15:46:48.411Z,16.73
2018-12-05T15:49:19.062Z,16.55
2018-12-05T15:51:50.852Z,16.45
2018-12-05T15:54:21.553Z,16.41
2018-12-05T15:56:52.349Z,16.44
2018-12-05T15:59:23.231Z,16.37
2018-12-05T16:01:53.890Z,16.25
2018-12-05T16:04:24.494Z,16.21
2018-12-05T16:06:55.235Z,16.15
2018-12-05T16:09:26.555Z,16.23
2018-12-05T16:11:58.053Z,16.29
2018-12-05T16:14:29.371Z,16.22
2018-12-05T16:17:00.033Z,16.17
2018-12-05T16:19:31.699Z,16.08
2018-12-05T16:22:04.406Z,16.08
2018-12-05T16:24:35.056Z,16.10
2018-12-05T16:27:06.438Z,16.13
2018-12-05T16:29:37.067Z,16.09
2018-12-05T16:32:08.360Z,16.08
2018-12-05T16:34:39.880Z,16.06
2018-12-05T16:37:10.549Z,16.09
2018-12-05T16:39:41.197Z,16.09
2018-12-05T16:42:11.797Z,16.12
2018-12-05T16:44:42.945Z,16.14
2018-12-05T16:47:14.150Z,15.99
2018-12-05T16:49:44.835Z,15.91
2018-12-05T16:52:15.469Z,15.83
2018-12-05T16:54:46.342Z,15.89
2018-12-05T16:57:18.856Z,15.85
2018-12-05T16:59:49.779Z,15.81
2018-12-05T17:02:20.513Z,15.81
2018-12-05T17:04:51.148Z,15.75
2018-12-05T17:07:21.844Z,15.68
2018-12-05T17:09:52.565Z,15.58
2018-12-05T17:12:23.908Z,15.46
2018-12-05T17:14:54.584Z,15.45
2018-12-05T17:17:25.317Z,15.43
2018-12-05T17:19:55.986Z,15.38
2018-12-05T17:22:26.605Z,15.33
2018-12-05T17:24:57.256Z,15.30
2018-12-05T17:27:27.904Z,15.28
2018-12-05T17:29:59.842Z,15.34
2018-12-05T17:32:30.482Z,15.32
2018-12-05T17:35:01.158Z,15.21
2018-12-05T17:37:31.873Z,15.24
2018-12-05T17:40:02.636Z,15.20
2018-12-05T17:42:33.835Z,15.17
2018-12-05T17:45:04.922Z,15.16
2018-12-05T17:47:35.729Z,15.16
2018-12-05T17:50:06.562Z,15.13
2018-12-05T17:52:37.209Z,15.06
2018-12-05T17:55:07.893Z,14.94
2018-12-05T17:57:39.449Z,14.89
2018-12-05T18:00:11.622Z,14.91
2018-12-05T18:02:42.298Z,14.93
2018-12-05T18:05:12.970Z,15.05
2018-12-05T18:07:43.674Z,15.16
2018-12-05T18:10:16.225Z,15.03
2018-12-05T18:12:46.896Z,14.90
2018-12-05T18:15:17.561Z,14.79
2018-12-05T18:17:48.218Z,14.77
2018-12-05T18:20:18.984Z,14.77
2018-12-05T18:22:49.650Z,14.83
2018-12-05T18:25:20.450Z,14.81
2018-12-05T18:27:51.440Z,14.83
2018-12-05T18:30:22.203Z,14.84
2018-12-05T18:32:53.436Z,14.87
2018-12-05T18:35:24.538Z,14.76
2018-12-05T18:37:55.907Z,14.72
2018-12-05T18:40:26.578Z,14.67
2018-12-05T18:43:00.252Z,14.57
2018-12-05T18:45:35.184Z,14.58
2018-12-05T18:48:06.183Z,14.62
2018-12-05T18:50:36.878Z,14.62
2018-12-05T18:53:07.726Z,14.58
2018-12-05T18:55:38.449Z,14.48
2018-12-05T18:58:09.161Z,14.75
2018-12-05T19:00:40.647Z,14.55
2018-12-05T19:03:11.340Z,14.36
2018-12-05T19:05:42.070Z,14.38
2018-12-05T19:08:12.910Z,14.35
2018-12-05T19:10:43.813Z,14.38
2018-12-05T19:13:14.530Z,14.39
2018-12-05T19:15:45.252Z,14.32
2018-12-05T19:18:16.743Z,14.37
2018-12-05T19:20:47.464Z,14.34
2018-12-05T19:23:18.282Z,14.30
2018-12-05T19:25:51.021Z,14.32
2018-12-05T19:28:24.696Z,14.30
2018-12-05T19:30:55.339Z,14.39
2018-12-05T19:33:26.037Z,14.41
2018-12-05T19:35:56.699Z,14.31
2018-12-05T19:38:27.342Z,14.28
2018-12-05T19:40:58.166Z,14.20
2018-12-05T19:43:28.831Z,14.23
2018-12-05T19:45:59.751Z,14.25
2018-12-05T19:48:30.745Z,14.25
2018-12-05T19:51:06.474Z,14.33
2018-12-05T19:53:37.126Z,14.26
2018-12-05T19:56:07.800Z,14.24
2018-12-05T19:58:38.496Z,14.23
2018-12-05T20:01:09.202Z,14.28
2018-12-05T20:03:40.587Z,14.27
2018-12-05T20:06:11.488Z,14.31
2018-12-05T20:08:42.411Z,14.26
2018-12-05T20:11:13.071Z,14.32
2018-12-05T20:13:46.229Z,14.29
2018-12-05T20:16:18.041Z,14.24
2018-12-05T20:18:48.912Z,14.47
2018-12-05T20:21:19.718Z,14.18
2018-12-05T20:23:53.556Z,14.13
2018-12-05T20:26:24.286Z,14.08
2018-12-05T20:29:07.005Z,14.04
2018-12-05T20:31:38.116Z,14.01
2018-12-05T20:34:08.888Z,13.88
2018-12-05T20:36:40.230Z,13.97
2018-12-05T20:39:11.682Z,14.03
2018-12-05T20:41:42.380Z,14.01
2018-12-05T20:44:13.550Z,14.00
2018-12-05T20:46:44.287Z,14.03
2018-12-05T20:49:15.049Z,14.03
2018-12-05T20:51:45.679Z,14.05
2018-12-05T20:54:16.362Z,14.09
2018-12-05T20:56:47.042Z,14.02
2018-12-05T20:59:17.694Z,13.98
2018-12-05T21:01:49.901Z,14.04
2018-12-05T21:04:21.218Z,14.05
2018-12-05T21:06:51.954Z,14.12
2018-12-05T21:09:22.626Z,14.16
2018-12-05T21:11:53.286Z,14.07
2018-12-05T21:18:18.863Z,13.98
2018-12-05T21:20:49.565Z,13.93
2018-12-05T21:23:20.200Z,13.94
2018-12-05T21:25:50.923Z,13.98
2018-12-05T21:28:21.667Z,13.87
2018-12-05T21:30:52.552Z,13.82
2018-12-05T21:33:23.236Z,13.81
2018-12-05T21:35:53.878Z,13.77
2018-12-05T21:38:24.609Z,13.66
2018-12-05T21:40:56.132Z,13.71
2018-12-05T21:43:28.493Z,13.71
2018-12-05T21:45:59.201Z,13.71
2018-12-05T21:48:29.924Z,13.73
2018-12-05T21:51:00.581Z,13.74
2018-12-05T21:53:36.608Z,13.64
2018-12-05T21:56:08.494Z,13.60
2018-12-05T21:58:39.277Z,13.63
2018-12-05T22:01:10.220Z,13.65
2018-12-05T22:03:41.782Z,13.71
2018-12-05T22:06:12.509Z,13.71
2018-12-05T22:08:43.505Z,13.65
2018-12-05T22:11:14.407Z,13.71
2018-12-05T22:13:45.109Z,13.77
2018-12-05T22:16:15.763Z,13.79
2018-12-05T22:18:46.473Z,13.83
2018-12-05T22:21:17.467Z,13.85
2018-12-05T22:23:48.051Z,13.81
2018-12-05T22:26:18.747Z,13.84
2018-12-05T22:28:49.421Z,13.83
2018-12-05T22:31:20.528Z,13.75
2018-12-05T22:33:51.142Z,13.78
2018-12-05T22:36:22.922Z,13.77
2018-12-05T22:38:53.574Z,13.64
2018-12-05T22:41:24.753Z,13.68
2018-12-05T22:43:55.450Z,13.73
2018-12-05T22:46:26.200Z,13.64
2018-12-05T22:48:57.405Z,13.68
2018-12-05T22:51:28.144Z,13.69
2018-12-05T22:53:58.769Z,13.69
2018-12-05T22:56:29.421Z,13.75
2018-12-05T22:59:00.084Z,13.74
2018-12-05T23:01:34.555Z,13.72
2018-12-05T23:04:06.431Z,13.68
2018-12-05T23:06:37.083Z,13.72
2018-12-05T23:09:07.831Z,13.69
2018-12-05T23:11:41.164Z,13.75
2018-12-05T23:14:11.809Z,13.67
2018-12-05T23:16:42.487Z,13.63
2018-12-05T23:19:13.217Z,13.53
2018-12-05T23:21:45.282Z,13.46
2018-12-05T23:24:16.006Z,13.45
2018-12-05T23:26:46.717Z,13.40
2018-12-05T23:29:17.558Z,13.42
2018-12-05T23:31:48.314Z,13.42
2018-12-05T23:34:20.047Z,13.37
2018-12-05T23:36:50.681Z,13.42
2018-12-05T23:39:21.358Z,13.41
2018-12-05T23:41:52.578Z,13.53
2018-12-05T23:44:23.263Z,13.50
2018-12-05T23:46:53.935Z,13.44
2018-12-05T23:49:25.602Z,13.47
2018-12-05T23:51:56.290Z,13.49
2018-12-05T23:54:27.819Z,13.50
2018-12-05T23:56:58.528Z,13.50
2018-12-05T23:59:29.554Z,13.48
